createdAt,value
2022-10-12T00:00:26.078Z,101434.64
2022-10-12T00:03:18.431Z,101434.04
2022-10-12T00:06:00.994Z,101434.83
2022-10-12T00:08:33.799Z,101432.61
2022-10-12T00:11:07.172Z,101434.48
2022-10-12T00:13:39.380Z,101435.65
2022-10-12T00:16:19.536Z,101436.77
2022-10-12T00:18:54.660Z,101432.66
2022-10-12T00:21:28.600Z,101435.48
2022-10-12T00:24:02.107Z,101433.15
2022-10-12T00:26:34.497Z,101433.41
2022-10-12T00:29:06.807Z,101429.30
2022-10-12T00:31:39.000Z,101427.73
2022-10-12T00:34:11.617Z,101430.48
2022-10-12T00:36:43.800Z,101430.14
2022-10-12T00:39:16.077Z,101428.22
2022-10-12T00:41:48.424Z,101427.13
2022-10-12T00:44:42.989Z,101423.75
2022-10-12T00:47:29.525Z,101427.01
2022-10-12T00:50:08.120Z,101425.52
2022-10-12T00:52:44.763Z,101426.81
2022-10-12T00:55:20.356Z,101425.35
2022-10-12T00:57:56.009Z,101425.36
2022-10-12T01:00:28.376Z,101431.36
2022-10-12T01:03:01.519Z,101425.23
2022-10-12T01:05:34.147Z,101426.89
2022-10-12T01:08:06.622Z,101425.21
2022-10-12T01:10:38.759Z,101426.35
2022-10-12T01:13:11.088Z,101427.36
2022-10-12T01:15:49.528Z,101423.27
2022-10-12T01:18:27.455Z,101422.51
2022-10-12T01:21:12.396Z,101427.27
2022-10-12T01:24:12.922Z,101427.71
2022-10-12T01:27:04.657Z,101427.58
2022-10-12T01:30:05.306Z,101428.61
2022-10-12T01:32:54.902Z,101428.98
2022-10-12T01:35:35.732Z,101428.14
2022-10-12T01:38:19.143Z,101432.46
2022-10-12T01:40:59.211Z,101438.52
2022-10-12T01:43:39.577Z,101434.47
2022-10-12T01:46:47.736Z,101438.31
2022-10-12T01:49:23.728Z,101438.70
2022-10-12T01:52:28.447Z,101440.44
2022-10-12T01:55:25.505Z,101445.79
2022-10-12T01:58:20.061Z,101447.71
2022-10-12T02:01:02.295Z,101449.42
2022-10-12T02:03:40.347Z,101451.59
2022-10-12T02:06:17.253Z,101455.04
2022-10-12T02:08:56.800Z,101458.69
2022-10-12T02:11:30.083Z,101457.77
2022-10-12T02:14:07.940Z,101463.20
2022-10-12T02:16:44.034Z,101463.60
2022-10-12T02:19:20.962Z,101459.99
2022-10-12T02:21:55.898Z,101460.13
2022-10-12T02:24:30.474Z,101461.72
2022-10-12T02:27:04.703Z,101454.12
2022-10-12T02:29:41.265Z,101456.57
2022-10-12T02:32:21.211Z,101457.05
2022-10-12T02:34:58.911Z,101454.89
2022-10-12T02:37:38.043Z,101454.23
2022-10-12T02:40:19.095Z,101456.23
2022-10-12T02:43:10.011Z,101458.80
2022-10-12T02:45:46.880Z,101458.69
2022-10-12T02:48:23.375Z,101460.69
2022-10-12T02:50:58.514Z,101460.14
2022-10-12T02:53:32.815Z,101458.85
2022-10-12T02:56:08.172Z,101460.60
2022-10-12T02:58:40.387Z,101455.25
2022-10-12T03:01:13.259Z,101461.27
2022-10-12T03:03:46.027Z,101459.64
2022-10-12T03:06:20.250Z,101461.32
2022-10-12T03:08:53.428Z,101460.58
2022-10-12T03:11:26.299Z,101466.21
2022-10-12T03:13:58.917Z,101464.46
2022-10-12T03:16:31.274Z,101466.70
2022-10-12T03:19:04.218Z,101466.74
2022-10-12T03:21:36.689Z,101470.63
2022-10-12T03:24:09.025Z,101469.13
2022-10-12T03:26:41.240Z,101473.33
2022-10-12T03:29:13.715Z,101475.08
2022-10-12T03:31:45.946Z,101473.29
2022-10-12T03:34:18.122Z,101476.42
2022-10-12T03:36:50.365Z,101473.61
2022-10-12T03:39:22.578Z,101475.33
2022-10-12T03:41:54.795Z,101476.56
2022-10-12T03:44:27.081Z,101474.95
2022-10-12T03:46:59.311Z,101480.45
2022-10-12T03:49:31.617Z,101479.56
2022-10-12T03:52:03.925Z,101477.23
2022-10-12T03:54:36.140Z,101479.73
2022-10-12T03:57:08.343Z,101481.23
2022-10-12T03:59:40.496Z,101482.61
2022-10-12T04:02:16.666Z,101487.65
2022-10-12T04:04:49.396Z,101486.14
2022-10-12T04:07:21.691Z,101485.39
2022-10-12T04:09:53.953Z,101485.71
2022-10-12T04:12:26.340Z,101486.80
2022-10-12T04:14:58.572Z,101491.93
2022-10-12T04:17:30.831Z,101491.13
2022-10-12T04:20:03.117Z,101490.76
2022-10-12T04:22:35.643Z,101495.04
2022-10-12T04:25:09.071Z,101496.09
2022-10-12T04:27:41.384Z,101497.23
2022-10-12T04:30:15.392Z,101500.38
2022-10-12T04:32:47.592Z,101496.35
2022-10-12T04:35:20.020Z,101500.23
2022-10-12T04:37:52.239Z,101503.42
2022-10-12T04:40:24.460Z,101507.05
2022-10-12T04:42:57.040Z,101503.73
2022-10-12T04:45:29.376Z,101505.02
2022-10-12T04:48:01.579Z,101510.30
2022-10-12T04:50:33.887Z,101510.27
2022-10-12T04:53:05.987Z,101511.33
2022-10-12T04:55:40.107Z,101518.13
2022-10-12T04:58:12.194Z,101519.20
2022-10-12T05:00:44.435Z,101518.52
2022-10-12T05:03:16.625Z,101521.44
2022-10-12T05:05:48.979Z,101525.08
2022-10-12T05:08:21.164Z,101528.10
2022-10-12T05:10:53.579Z,101530.58
2022-10-12T05:13:25.949Z,101530.35
2022-10-12T05:15:58.257Z,101534.07
2022-10-12T05:18:30.565Z,101533.47
2022-10-12T05:21:02.737Z,101535.94
2022-10-12T05:23:35.027Z,101539.81
2022-10-12T05:26:07.351Z,101543.86
2022-10-12T05:28:41.227Z,101547.02
2022-10-12T05:31:13.765Z,101547.43
2022-10-12T05:33:46.087Z,101551.13
2022-10-12T05:36:18.371Z,101555.43
2022-10-12T05:38:50.591Z,101559.40
2022-10-12T05:41:22.986Z,101558.29
2022-10-12T05:43:55.250Z,101565.48
2022-10-12T05:46:27.488Z,101569.52
2022-10-12T05:48:59.685Z,101574.43
2022-10-12T05:51:31.891Z,101579.23
2022-10-12T05:54:04.117Z,101581.14
2022-10-12T05:56:36.327Z,101581.54
2022-10-12T05:59:08.596Z,101583.48
2022-10-12T06:01:41.268Z,101585.44
2022-10-12T06:04:13.903Z,101588.98
2022-10-12T06:06:46.385Z,101591.88
2022-10-12T06:09:18.681Z,101596.12
2022-10-12T06:11:50.919Z,101593.32
2022-10-12T06:14:23.229Z,101597.19
2022-10-12T06:16:55.432Z,101602.14
2022-10-12T06:19:27.595Z,101602.98
2022-10-12T06:21:59.801Z,101605.10
2022-10-12T06:24:32.062Z,101610.21
2022-10-12T06:27:04.820Z,101613.84
2022-10-12T06:29:38.409Z,101617.45
2022-10-12T06:32:10.839Z,101619.44
2022-10-12T06:34:43.082Z,101625.96
2022-10-12T06:37:37.251Z,101625.77
2022-10-12T06:40:09.014Z,101626.60
2022-10-12T06:42:41.350Z,101625.50
2022-10-12T06:45:14.499Z,101629.67
2022-10-12T06:47:46.878Z,101629.29
2022-10-12T06:50:19.224Z,101627.30
2022-10-12T06:52:51.568Z,101629.56
2022-10-12T06:55:24.076Z,101629.05
2022-10-12T06:57:57.873Z,101630.95
2022-10-12T07:00:30.038Z,101631.89
2022-10-12T07:03:02.351Z,101632.51
2022-10-12T07:05:34.740Z,101630.88
2022-10-12T07:08:07.139Z,101630.98
2022-10-12T07:10:39.394Z,101632.91
2022-10-12T07:13:11.717Z,101633.23
2022-10-12T07:15:50.148Z,101629.94
2022-10-12T07:18:22.418Z,101632.52
2022-10-12T07:20:55.203Z,101629.30
2022-10-12T07:23:27.611Z,101631.94
2022-10-12T07:26:00.261Z,101632.75
2022-10-12T07:28:32.525Z,101630.73
2022-10-12T07:31:06.479Z,101631.02
2022-10-12T07:33:39.806Z,101639.06
2022-10-12T07:36:14.839Z,101638.23
2022-10-12T07:38:47.312Z,101638.37
2022-10-12T07:41:20.062Z,101643.69
2022-10-12T07:43:57.636Z,101642.21
2022-10-12T07:46:29.878Z,101641.05
2022-10-12T07:49:02.814Z,101637.97
2022-10-12T07:51:35.384Z,101634.20
2022-10-12T07:54:08.263Z,101633.24
2022-10-12T07:56:40.484Z,101633.77
2022-10-12T07:59:12.770Z,101629.05
2022-10-12T08:01:45.867Z,101625.77
2022-10-12T08:04:18.192Z,101628.00
2022-10-12T08:06:50.344Z,101627.98
2022-10-12T08:09:22.491Z,101630.02
2022-10-12T08:11:56.313Z,101634.80
2022-10-12T08:14:28.507Z,101630.96
2022-10-12T08:17:00.640Z,101633.46
2022-10-12T08:19:35.437Z,101634.27
2022-10-12T08:22:07.840Z,101636.98
2022-10-12T08:24:40.149Z,101640.16
2022-10-12T08:27:12.413Z,101639.14
2022-10-12T08:29:44.609Z,101641.29
2022-10-12T08:32:16.872Z,101643.20
2022-10-12T08:34:49.052Z,101638.70
2022-10-12T08:37:21.283Z,101641.44
2022-10-12T08:39:54.042Z,101641.16
2022-10-12T08:42:40.550Z,101641.33
2022-10-12T08:45:36.914Z,101640.38
2022-10-12T08:48:16.016Z,101644.73
2022-10-12T08:50:51.904Z,101642.84
2022-10-12T08:53:28.008Z,101649.63
2022-10-12T08:56:01.547Z,101648.27
2022-10-12T08:58:37.161Z,101649.06
2022-10-12T09:01:22.733Z,101647.87
2022-10-12T09:04:07.600Z,101647.98
2022-10-12T09:06:47.967Z,101646.29
2022-10-12T09:09:41.621Z,101649.02
2022-10-12T09:12:30.632Z,101650.55
2022-10-12T09:15:07.324Z,101646.41
2022-10-12T09:17:44.891Z,101647.39
2022-10-12T09:20:22.680Z,101637.83
2022-10-12T09:22:58.380Z,101637.21
2022-10-12T09:25:29.510Z,101636.06
2022-10-12T09:28:19.837Z,101640.64
2022-10-12T09:31:06.840Z,101636.27
2022-10-12T09:33:46.285Z,101631.42
2022-10-12T09:36:23.423Z,101637.23
2022-10-12T09:38:56.795Z,101639.09
2022-10-12T09:41:34.396Z,101640.91
2022-10-12T09:44:09.248Z,101643.20
2022-10-12T09:46:45.121Z,101644.54
2022-10-12T09:49:17.348Z,101644.97
2022-10-12T09:51:50.168Z,101645.33
2022-10-12T09:54:32.457Z,101644.23
2022-10-12T09:57:05.713Z,101642.97
2022-10-12T09:59:40.680Z,101643.16
2022-10-12T10:02:19.463Z,101641.64
2022-10-12T10:04:52.766Z,101639.80
2022-10-12T10:07:31.286Z,101636.76
2022-10-12T10:10:19.066Z,101640.68
2022-10-12T10:12:54.783Z,101637.59
2022-10-12T10:15:31.564Z,101637.66
2022-10-12T10:18:06.344Z,101636.80
2022-10-12T10:20:42.308Z,101637.86
2022-10-12T10:23:27.940Z,101634.20
2022-10-12T10:26:05.669Z,101628.20
2022-10-12T10:28:42.786Z,101627.63
2022-10-12T10:31:25.136Z,101624.84
2022-10-12T10:34:25.637Z,101619.61
2022-10-12T10:36:58.594Z,101618.75
2022-10-12T10:39:33.657Z,101615.12
2022-10-12T10:42:19.270Z,101610.52
2022-10-12T10:44:53.567Z,101606.25
2022-10-12T10:47:25.952Z,101602.14
2022-10-12T10:50:01.584Z,101599.98
2022-10-12T10:52:36.461Z,101599.51
2022-10-12T10:55:22.193Z,101597.81
2022-10-12T10:58:03.353Z,101595.45
2022-10-12T11:00:40.937Z,101590.64
2022-10-12T11:06:07.088Z,101582.66
2022-10-12T11:08:40.767Z,101575.58
2022-10-12T11:11:17.628Z,101577.81
2022-10-12T11:13:55.611Z,101574.40
2022-10-12T11:16:33.697Z,101570.70
2022-10-12T11:19:19.576Z,101569.52
2022-10-12T11:21:55.918Z,101566.50
2022-10-12T11:24:33.850Z,101565.59
2022-10-12T11:27:11.944Z,101563.83
2022-10-12T11:29:44.848Z,101568.45
2022-10-12T11:32:24.069Z,101564.11
2022-10-12T11:35:00.208Z,101561.94
2022-10-12T11:37:37.444Z,101559.70
2022-10-12T11:40:31.011Z,101555.94
2022-10-12T11:43:20.980Z,101555.70
2022-10-12T11:45:57.686Z,101555.20
2022-10-12T11:48:35.381Z,101551.77
2022-10-12T11:51:08.138Z,101550.23
2022-10-12T11:53:47.640Z,101547.23
2022-10-12T11:56:26.398Z,101541.80
2022-10-12T11:59:03.979Z,101545.45
2022-10-12T12:01:48.359Z,101550.20
2022-10-12T12:04:48.496Z,101551.87
2022-10-12T12:07:46.545Z,101551.76
2022-10-12T12:11:00.661Z,101553.48
2022-10-12T12:13:33.325Z,101549.36
2022-10-12T12:16:34.516Z,101542.04
2022-10-12T12:19:42.332Z,101541.35
2022-10-12T12:22:29.979Z,101545.23
2022-10-12T12:25:26.079Z,101546.28
2022-10-12T12:28:00.724Z,101544.81
2022-10-12T12:30:41.568Z,101545.23
2022-10-12T12:33:42.349Z,101539.98
2022-10-12T12:36:25.944Z,101540.04
2022-10-12T12:38:59.043Z,101541.36
2022-10-12T12:41:55.142Z,101543.05
2022-10-12T12:44:42.824Z,101543.05
2022-10-12T12:47:47.477Z,101541.75
2022-10-12T12:50:36.065Z,101540.70
2022-10-12T12:53:16.256Z,101538.05
2022-10-12T12:56:04.905Z,101535.83
2022-10-12T12:59:06.899Z,101535.69
2022-10-12T13:02:03.367Z,101531.18
2022-10-12T13:05:09.396Z,101528.52
2022-10-12T13:08:04.122Z,101532.45
2022-10-12T13:10:48.296Z,101529.84
2022-10-12T13:13:44.779Z,101530.40
2022-10-12T13:17:23.533Z,101529.45
2022-10-12T13:19:25.352Z,101535.34
2022-10-12T13:21:59.533Z,101526.19
2022-10-12T13:24:35.727Z,101527.27
2022-10-12T13:27:19.037Z,101524.88
2022-10-12T13:29:55.121Z,101528.53
2022-10-12T13:32:39.653Z,101530.52
2022-10-12T13:35:18.453Z,101532.46
2022-10-12T13:38:03.865Z,101530.86
2022-10-12T13:40:39.939Z,101530.77
2022-10-12T13:43:31.974Z,101527.21
2022-10-12T13:46:05.500Z,101527.08
2022-10-12T13:48:58.855Z,101527.60
2022-10-12T13:51:32.214Z,101526.74
2022-10-12T13:54:15.126Z,101529.27
2022-10-12T13:56:50.594Z,101527.33
2022-10-12T13:59:24.381Z,101528.38
2022-10-12T14:02:00.916Z,101525.04
2022-10-12T14:04:34.776Z,101526.21
2022-10-12T14:07:12.973Z,101526.09
2022-10-12T14:09:47.592Z,101519.86
2022-10-12T14:12:25.225Z,101523.81
2022-10-12T14:14:58.689Z,101525.50
2022-10-12T14:17:31.061Z,101528.20
2022-10-12T14:23:05.828Z,101527.10
2022-10-12T14:25:39.193Z,101526.97
2022-10-12T14:28:29.845Z,101525.74
2022-10-12T14:31:02.082Z,101526.76
2022-10-12T14:33:35.121Z,101527.27
2022-10-12T14:36:25.847Z,101525.42
2022-10-12T14:39:11.662Z,101526.93
2022-10-12T14:41:52.619Z,101525.88
2022-10-12T14:44:26.950Z,101523.85
2022-10-12T14:47:06.048Z,101529.04
2022-10-12T14:49:42.037Z,101533.32
2022-10-12T14:52:21.768Z,101532.39
2022-10-12T14:57:34.248Z,101540.31
2022-10-12T15:00:07.596Z,101540.52
2022-10-12T15:02:42.789Z,101543.04
2022-10-12T15:05:16.354Z,101545.08
2022-10-12T15:07:49.004Z,101545.95
2022-10-12T15:10:23.133Z,101541.55
2022-10-12T15:12:55.915Z,101540.38
2022-10-12T15:15:35.044Z,101538.21
2022-10-12T15:18:07.637Z,101539.90
2022-10-12T15:20:42.398Z,101541.09
2022-10-12T15:23:17.796Z,101540.48
2022-10-12T15:25:53.343Z,101537.64
2022-10-12T15:28:24.246Z,101537.11
2022-10-12T15:31:16.621Z,101540.08
2022-10-12T15:33:49.809Z,101541.69
2022-10-12T15:36:21.948Z,101545.06
2022-10-12T15:38:54.136Z,101547.80
2022-10-12T15:41:27.786Z,101549.20
2022-10-12T15:44:00.232Z,101552.16
2022-10-12T15:46:32.436Z,101551.38
2022-10-12T15:49:04.603Z,101552.73
2022-10-12T15:51:40.707Z,101553.33
2022-10-12T15:54:14.512Z,101553.84
2022-10-12T15:56:47.398Z,101553.27
2022-10-12T15:59:19.623Z,101554.84
2022-10-12T16:01:51.835Z,101562.77
2022-10-12T16:04:24.068Z,101566.61
2022-10-12T16:06:56.416Z,101564.76
2022-10-12T16:09:28.737Z,101563.64
2022-10-12T16:12:02.606Z,101565.16
2022-10-12T16:14:34.884Z,101569.04
2022-10-12T16:17:07.217Z,101564.96
2022-10-12T16:19:39.456Z,101570.41
2022-10-12T16:22:12.101Z,101569.65
2022-10-12T16:24:44.345Z,101572.48
2022-10-12T16:27:16.936Z,101573.09
2022-10-12T16:29:49.289Z,101579.95
2022-10-12T16:32:21.513Z,101577.15
2022-10-12T16:34:53.732Z,101575.71
2022-10-12T16:37:25.922Z,101577.70
2022-10-12T16:39:58.246Z,101574.00
2022-10-12T16:42:30.568Z,101571.15
2022-10-12T16:45:02.888Z,101572.36
2022-10-12T16:47:38.849Z,101575.32
2022-10-12T16:50:15.641Z,101575.23
2022-10-12T16:52:48.589Z,101577.06
2022-10-12T16:55:21.684Z,101580.75
2022-10-12T16:57:53.896Z,101575.27
2022-10-12T17:00:26.223Z,101576.58
2022-10-12T17:02:58.390Z,101573.95
2022-10-12T17:05:30.655Z,101574.25
2022-10-12T17:08:03.168Z,101573.13
2022-10-12T17:10:35.142Z,101573.46
2022-10-12T17:13:07.379Z,101571.95
2022-10-12T17:15:44.088Z,101574.48
2022-10-12T17:18:16.415Z,101578.36
2022-10-12T17:20:52.103Z,101585.64
2022-10-12T17:23:25.212Z,101582.10
2022-10-12T17:26:02.815Z,101584.73
2022-10-12T17:28:37.745Z,101582.13
2022-10-12T17:31:11.810Z,101584.77
2022-10-12T17:33:44.951Z,101581.30
2022-10-12T17:36:17.472Z,101583.23
2022-10-12T17:38:49.755Z,101584.56
2022-10-12T17:41:22.067Z,101587.86
2022-10-12T17:43:54.601Z,101586.13
2022-10-12T17:46:26.914Z,101588.13
2022-10-12T17:49:00.285Z,101585.05
2022-10-12T17:51:32.675Z,101591.38
2022-10-12T17:54:05.068Z,101591.39
2022-10-12T17:56:37.451Z,101594.75
2022-10-12T17:59:10.387Z,101590.71
2022-10-12T18:01:42.743Z,101589.15
2022-10-12T18:04:15.836Z,101587.21
2022-10-12T18:06:48.184Z,101588.77
2022-10-12T18:09:21.665Z,101585.09
2022-10-12T18:11:54.529Z,101588.18
2022-10-12T18:14:26.982Z,101588.15
2022-10-12T18:16:59.163Z,101589.97
2022-10-12T18:19:32.635Z,101592.70
2022-10-12T18:22:04.894Z,101592.96
2022-10-12T18:24:37.257Z,101595.81
2022-10-12T18:27:09.811Z,101595.10
2022-10-12T18:29:42.029Z,101595.24
2022-10-12T18:32:14.353Z,101596.01
2022-10-12T18:34:46.595Z,101596.08
2022-10-12T18:37:18.796Z,101594.23
2022-10-12T18:39:51.071Z,101596.34
2022-10-12T18:42:23.373Z,101595.35
2022-10-12T18:44:55.637Z,101597.47
2022-10-12T18:47:30.154Z,101596.68
2022-10-12T18:50:02.414Z,101594.83
2022-10-12T18:52:35.209Z,101601.14
2022-10-12T18:55:08.415Z,101600.23
2022-10-12T18:57:40.880Z,101596.46
2022-10-12T19:00:15.553Z,101601.43
2022-10-12T19:02:47.745Z,101604.16
2022-10-12T19:05:20.516Z,101599.34
2022-10-12T19:07:52.984Z,101607.27
2022-10-12T19:10:25.281Z,101608.48
2022-10-12T19:12:58.783Z,101612.11
2022-10-12T19:15:32.417Z,101611.83
2022-10-12T19:18:04.742Z,101610.42
2022-10-12T19:20:38.926Z,101610.95
2022-10-12T19:23:11.136Z,101606.46
2022-10-12T19:25:43.375Z,101604.26
2022-10-12T19:28:15.618Z,101603.05
2022-10-12T19:30:47.969Z,101601.94
2022-10-12T19:33:20.141Z,101597.91
2022-10-12T19:35:52.451Z,101593.08
2022-10-12T19:38:24.677Z,101594.69
2022-10-12T19:40:56.967Z,101592.48
2022-10-12T19:43:29.460Z,101598.05
2022-10-12T19:46:05.532Z,101599.79
2022-10-12T19:48:38.748Z,101598.72
2022-10-12T19:51:13.652Z,101598.30
2022-10-12T19:53:45.925Z,101603.50
2022-10-12T19:56:21.017Z,101602.03
2022-10-12T19:58:55.686Z,101603.88
2022-10-12T20:01:29.857Z,101606.60
2022-10-12T20:04:02.415Z,101603.49
2022-10-12T20:06:34.678Z,101605.19
2022-10-12T20:09:08.243Z,101605.42
2022-10-12T20:11:41.492Z,101608.99
2022-10-12T20:14:13.992Z,101608.67
2022-10-12T20:16:46.208Z,101608.23
2022-10-12T20:19:18.424Z,101603.14
2022-10-12T20:21:50.730Z,101600.34
2022-10-12T20:24:25.304Z,101599.26
2022-10-12T20:26:57.571Z,101599.03
2022-10-12T20:29:29.729Z,101600.11
2022-10-12T20:32:01.910Z,101593.02
2022-10-12T20:34:34.296Z,101594.63
2022-10-12T20:37:06.622Z,101594.46
2022-10-12T20:39:38.957Z,101597.04
2022-10-12T20:42:12.142Z,101594.23
2022-10-12T20:44:44.535Z,101596.91
2022-10-12T20:47:16.772Z,101600.89
2022-10-12T20:49:49.960Z,101603.90
2022-10-12T20:52:22.185Z,101603.98
2022-10-12T20:54:54.991Z,101606.03
2022-10-12T20:57:27.423Z,101606.38
2022-10-12T20:59:59.807Z,101604.88
2022-10-12T21:02:33.546Z,101611.60
2022-10-12T21:05:05.859Z,101611.54
2022-10-12T21:07:38.480Z,101612.39
2022-10-12T21:10:12.187Z,101612.14
2022-10-12T21:12:44.368Z,101615.41
2022-10-12T21:15:16.645Z,101614.02
2022-10-12T21:17:48.929Z,101615.45
2022-10-12T21:20:21.275Z,101612.61
2022-10-12T21:22:53.595Z,101613.87
2022-10-12T21:25:25.768Z,101616.48
2022-10-12T21:27:58.126Z,101619.17
2022-10-12T21:30:30.354Z,101618.89
2022-10-12T21:33:02.587Z,101613.45
2022-10-12T21:35:34.965Z,101616.67
2022-10-12T21:38:07.318Z,101617.18
2022-10-12T21:40:39.957Z,101618.03
2022-10-12T21:43:12.247Z,101620.77
2022-10-12T21:45:44.455Z,101616.05
2022-10-12T21:48:16.636Z,101619.17
2022-10-12T21:50:48.930Z,101622.07
2022-10-12T21:53:21.184Z,101622.80
2022-10-12T21:55:53.429Z,101620.98
2022-10-12T21:58:25.729Z,101618.50
2022-10-12T22:01:07.083Z,101616.11
2022-10-12T22:03:39.532Z,101618.09
2022-10-12T22:06:15.628Z,101618.63
2022-10-12T22:08:50.989Z,101616.89
2022-10-12T22:11:24.719Z,101615.95
2022-10-12T22:14:01.975Z,101616.46
2022-10-12T22:16:34.839Z,101613.38
2022-10-12T22:19:09.395Z,101614.86
2022-10-12T22:21:41.748Z,101613.27
2022-10-12T22:24:13.958Z,101605.89
2022-10-12T22:26:46.263Z,101619.42
2022-10-12T22:29:18.455Z,101618.44
2022-10-12T22:31:50.891Z,101618.06
2022-10-12T22:34:23.135Z,101619.62
2022-10-12T22:36:55.336Z,101621.54
2022-10-12T22:39:27.837Z,101620.86
2022-10-12T22:42:00.133Z,101622.75
2022-10-12T22:44:32.457Z,101624.42
2022-10-12T22:47:04.712Z,101626.43
2022-10-12T22:49:37.020Z,101623.98
2022-10-12T22:52:09.468Z,101621.19
2022-10-12T22:54:41.769Z,101617.96
2022-10-12T22:57:14.070Z,101617.70
2022-10-12T22:59:46.240Z,101614.02
2022-10-12T23:02:18.900Z,101619.71
2022-10-12T23:04:51.783Z,101620.34
2022-10-12T23:07:24.094Z,101618.20
2022-10-12T23:09:56.812Z,101625.41
2022-10-12T23:12:28.957Z,101621.75
2022-10-12T23:15:01.196Z,101624.45
2022-10-12T23:17:33.560Z,101619.12
2022-10-12T23:20:06.278Z,101624.27
2022-10-12T23:22:38.485Z,101623.58
2022-10-12T23:25:11.187Z,101619.37
2022-10-12T23:27:43.398Z,101618.08
2022-10-12T23:30:15.868Z,101614.61
2022-10-12T23:32:48.188Z,101619.02
2022-10-12T23:35:20.543Z,101621.88
2022-10-12T23:37:52.736Z,101625.96
2022-10-12T23:40:24.909Z,101622.98
2022-10-12T23:42:57.188Z,101625.34
2022-10-12T23:45:29.352Z,101628.60
2022-10-12T23:48:01.661Z,101628.91
2022-10-12T23:50:33.980Z,101626.23
2022-10-12T23:53:06.348Z,101625.42
2022-10-12T23:55:38.994Z,101623.06
2022-10-12T23:58:11.732Z,101617.30
